createdAt,value
2018-11-03T00:00:06.574Z,1022.97
2018-11-03T00:01:06.594Z,1022.91
2018-11-03T00:02:06.608Z,1022.93
2018-11-03T00:03:06.629Z,1022.88
2018-11-03T00:04:06.643Z,1022.88
2018-11-03T00:05:06.667Z,1022.93
2018-11-03T00:06:06.678Z,1022.92
2018-11-03T00:08:06.713Z,1022.93
2018-11-03T00:09:06.730Z,1022.96
2018-11-03T00:10:06.751Z,1022.98
2018-11-03T00:11:06.765Z,1022.92
2018-11-03T00:12:06.786Z,1022.84
2018-11-03T00:13:06.801Z,1022.81
2018-11-03T00:14:06.822Z,1022.81
2018-11-03T00:15:06.844Z,1022.8
2018-11-03T00:16:06.857Z,1022.8
2018-11-03T00:17:06.870Z,1022.79
2018-11-03T00:18:06.893Z,1022.77
2018-11-03T00:19:06.910Z,1022.73
2018-11-03T00:20:06.928Z,1022.74
2018-11-03T00:21:06.945Z,1022.71
2018-11-03T00:22:06.958Z,1022.7
2018-11-03T00:24:06.993Z,1022.75
2018-11-03T00:25:07.014Z,1022.74
2018-11-03T00:26:07.032Z,1022.76
2018-11-03T00:27:07.045Z,1022.72
2018-11-03T00:28:07.062Z,1022.73
2018-11-03T00:29:07.084Z,1022.73
2018-11-03T00:30:07.097Z,1022.76
2018-11-03T00:31:07.119Z,1022.71
2018-11-03T00:32:07.132Z,1022.72
2018-11-03T00:33:07.154Z,1022.77
2018-11-03T00:34:07.166Z,1022.74
2018-11-03T00:35:07.188Z,1022.84
2018-11-03T00:36:07.201Z,1022.82
2018-11-03T00:37:07.224Z,1022.88
2018-11-03T00:38:07.237Z,1022.92
2018-11-03T00:40:07.275Z,1022.87
2018-11-03T00:41:07.289Z,1022.88
2018-11-03T00:42:07.304Z,1022.77
2018-11-03T00:43:07.327Z,1022.78
2018-11-03T00:44:07.341Z,1022.75
2018-11-03T00:45:07.362Z,1022.72
2018-11-03T00:46:07.375Z,1022.77
2018-11-03T00:47:07.398Z,1022.78
2018-11-03T00:48:07.411Z,1022.76
2018-11-03T00:49:07.429Z,1022.84
2018-11-03T00:50:07.449Z,1022.81
2018-11-03T00:51:07.467Z,1022.89
2018-11-03T00:52:07.485Z,1022.87
2018-11-03T00:53:07.497Z,1022.87
2018-11-03T00:55:07.533Z,1022.88
2018-11-03T00:56:07.548Z,1022.91
2018-11-03T00:57:07.572Z,1022.9
2018-11-03T00:58:07.586Z,1022.92
2018-11-03T00:59:07.603Z,1022.94
2018-11-03T01:00:07.624Z,1022.88
2018-11-03T01:01:07.637Z,1022.88
2018-11-03T01:02:07.658Z,1022.88
2018-11-03T01:03:07.674Z,1022.91
2018-11-03T01:04:07.693Z,1022.9
2018-11-03T01:05:07.707Z,1022.91
2018-11-03T01:06:07.723Z,1022.88
2018-11-03T01:07:07.745Z,1022.87
2018-11-03T01:08:07.759Z,1022.84
2018-11-03T01:09:07.780Z,1022.84
2018-11-03T01:10:07.796Z,1022.81
2018-11-03T01:11:07.815Z,1022.8
2018-11-03T01:12:07.828Z,1022.79
2018-11-03T01:13:07.851Z,1022.84
2018-11-03T01:14:07.864Z,1022.79
2018-11-03T01:15:07.883Z,1022.81
2018-11-03T01:16:07.903Z,1022.85
2018-11-03T01:17:07.915Z,1022.87
2018-11-03T01:18:07.931Z,1022.9
2018-11-03T01:19:07.949Z,1022.93
2018-11-03T01:20:07.971Z,1022.93
2018-11-03T01:21:07.984Z,1022.95
2018-11-03T01:22:08.001Z,1022.9
2018-11-03T01:23:08.023Z,1022.91
2018-11-03T01:24:08.037Z,1022.89
2018-11-03T01:25:08.057Z,1022.93
2018-11-03T01:27:08.088Z,1022.9
2018-11-03T01:28:08.105Z,1022.93
2018-11-03T01:29:08.127Z,1022.89
2018-11-03T01:30:08.144Z,1022.86
2018-11-03T01:31:08.158Z,1022.8
2018-11-03T01:32:08.193Z,1022.78
2018-11-03T01:33:08.197Z,1022.79
2018-11-03T01:34:08.209Z,1022.79
2018-11-03T01:35:08.228Z,1022.81
2018-11-03T01:36:08.245Z,1022.81
2018-11-03T01:37:08.266Z,1022.84
2018-11-03T01:38:08.279Z,1022.83
2018-11-03T01:39:08.301Z,1022.85
2018-11-03T01:40:08.318Z,1022.85
2018-11-03T01:41:08.332Z,1022.9
2018-11-03T01:43:08.368Z,1022.94
2018-11-03T01:44:08.384Z,1022.95
2018-11-03T01:45:08.406Z,1022.94
2018-11-03T01:46:08.417Z,1022.97
2018-11-03T01:47:08.440Z,1022.94
2018-11-03T01:48:08.453Z,1022.95
2018-11-03T01:49:08.475Z,1022.91
2018-11-03T01:50:08.491Z,1022.91
2018-11-03T01:51:08.511Z,1022.95
2018-11-03T01:52:08.533Z,1022.95
2018-11-03T01:53:08.540Z,1023.01
2018-11-03T01:54:08.559Z,1022.99
2018-11-03T01:55:08.581Z,1022.98
2018-11-03T01:56:08.592Z,1023.01
2018-11-03T01:57:08.615Z,1022.99
2018-11-03T01:59:08.649Z,1022.94
2018-11-03T02:00:08.663Z,1022.97
2018-11-03T02:01:08.681Z,1023
2018-11-03T02:02:08.703Z,1022.93
2018-11-03T02:03:08.714Z,1022.99
2018-11-03T02:04:08.737Z,1022.97
2018-11-03T02:05:08.749Z,1022.95
2018-11-03T02:06:08.767Z,1022.96
2018-11-03T02:07:08.784Z,1022.96
2018-11-03T02:08:08.802Z,1022.96
2018-11-03T02:09:08.823Z,1022.99
2018-11-03T02:10:08.837Z,1023.01
2018-11-03T02:11:08.859Z,1023
2018-11-03T02:12:08.873Z,1022.98
2018-11-03T02:13:08.894Z,1023.01
2018-11-03T02:15:08.924Z,1023.03
2018-11-03T02:16:08.953Z,1023.07
2018-11-03T02:17:08.959Z,1023.06
2018-11-03T02:18:08.977Z,1023.06
2018-11-03T02:19:08.999Z,1023.08
2018-11-03T02:20:09.012Z,1023.1
2018-11-03T02:21:09.033Z,1023.09
2018-11-03T02:22:09.051Z,1023.09
2018-11-03T02:23:09.065Z,1023.06
2018-11-03T02:24:09.088Z,1023.11
2018-11-03T02:25:09.103Z,1023.13
2018-11-03T02:26:09.121Z,1023.13
2018-11-03T02:27:09.136Z,1023.16
2018-11-03T02:28:09.157Z,1023.15
2018-11-03T02:30:09.189Z,1023.14
2018-11-03T02:31:09.247Z,1023.13
2018-11-03T02:32:09.223Z,1023.2
2018-11-03T02:33:09.260Z,1023.18
2018-11-03T02:34:09.258Z,1023.18
2018-11-03T02:35:09.283Z,1023.17
2018-11-03T02:36:09.302Z,1023.18
2018-11-03T02:37:09.311Z,1023.2
2018-11-03T02:38:09.332Z,1023.21
2018-11-03T02:39:09.345Z,1023.19
2018-11-03T02:40:09.364Z,1023.21
2018-11-03T02:41:09.381Z,1023.19
2018-11-03T02:42:09.402Z,1023.15
2018-11-03T02:43:09.420Z,1023.1
2018-11-03T02:44:09.432Z,1023.13
2018-11-03T02:45:09.450Z,1023.15
2018-11-03T02:46:09.472Z,1023.13
2018-11-03T02:47:09.489Z,1023.21
2018-11-03T02:48:09.517Z,1023.26
2018-11-03T02:49:09.521Z,1023.26
2018-11-03T02:50:09.544Z,1023.3
2018-11-03T02:51:09.558Z,1023.32
2018-11-03T02:52:09.577Z,1023.38
2018-11-03T02:53:09.594Z,1023.32
2018-11-03T02:54:09.612Z,1023.33
2018-11-03T02:55:09.625Z,1023.37
2018-11-03T02:56:09.643Z,1023.45
2018-11-03T02:57:09.664Z,1023.4
2018-11-03T02:58:09.679Z,1023.41
2018-11-03T02:59:09.700Z,1023.43
2018-11-03T03:00:09.715Z,1023.47
2018-11-03T03:02:09.749Z,1023.54
2018-11-03T03:03:09.766Z,1023.54
2018-11-03T03:04:09.788Z,1023.56
2018-11-03T03:05:09.805Z,1023.56
2018-11-03T03:06:09.823Z,1023.56
2018-11-03T03:07:09.836Z,1023.59
2018-11-03T03:08:09.858Z,1023.59
2018-11-03T03:09:09.869Z,1023.63
2018-11-03T03:10:09.893Z,1023.63
2018-11-03T03:11:09.905Z,1023.68
2018-11-03T03:12:09.927Z,1023.67
2018-11-03T03:13:09.941Z,1023.7
2018-11-03T03:14:09.957Z,1023.72
2018-11-03T03:15:09.980Z,1023.69
2018-11-03T03:16:09.997Z,1023.69
2018-11-03T03:18:10.033Z,1023.73
2018-11-03T03:19:10.046Z,1023.74
2018-11-03T03:20:10.068Z,1023.69
2018-11-03T03:21:10.084Z,1023.69
2018-11-03T03:22:10.103Z,1023.71
2018-11-03T03:23:10.121Z,1023.69
2018-11-03T03:24:10.134Z,1023.73
2018-11-03T03:25:10.161Z,1023.78
2018-11-03T03:26:10.169Z,1023.84
2018-11-03T03:27:10.185Z,1023.9
2018-11-03T03:28:10.203Z,1023.91
2018-11-03T03:29:10.436Z,1023.9
2018-11-03T03:30:10.253Z,1023.92
2018-11-03T03:31:10.257Z,1023.9
2018-11-03T03:32:10.279Z,1023.88
2018-11-03T03:34:10.311Z,1023.86
2018-11-03T03:35:10.328Z,1023.84
2018-11-03T03:36:10.349Z,1023.87
2018-11-03T03:37:10.365Z,1023.89
2018-11-03T03:38:10.382Z,1023.97
2018-11-03T03:39:10.397Z,1023.94
2018-11-03T03:40:10.422Z,1023.91
2018-11-03T03:41:10.432Z,1023.87
2018-11-03T03:42:10.454Z,1023.88
2018-11-03T03:43:10.468Z,1023.85
2018-11-03T03:44:10.484Z,1023.88
2018-11-03T03:45:10.502Z,1023.86
2018-11-03T03:46:10.524Z,1023.84
2018-11-03T03:47:10.572Z,1023.85
2018-11-03T03:48:10.554Z,1023.79
2018-11-03T03:50:10.623Z,1023.76
2018-11-03T03:51:10.614Z,1023.76
2018-11-03T03:52:10.624Z,1023.78
2018-11-03T03:53:10.646Z,1023.72
2018-11-03T03:54:10.664Z,1023.72
2018-11-03T03:55:10.681Z,1023.75
2018-11-03T03:56:10.693Z,1023.78
2018-11-03T03:57:10.712Z,1023.75
2018-11-03T03:58:10.734Z,1023.77
2018-11-03T03:59:10.752Z,1023.76
2018-11-03T04:00:10.769Z,1023.74
2018-11-03T04:01:10.795Z,1023.7
2018-11-03T04:02:10.804Z,1023.68
2018-11-03T04:03:10.818Z,1023.72
2018-11-03T04:05:10.857Z,1023.71
2018-11-03T04:06:10.874Z,1023.72
2018-11-03T04:07:10.886Z,1023.75
2018-11-03T04:08:10.909Z,1023.79
2018-11-03T04:09:10.927Z,1023.79
2018-11-03T04:10:10.945Z,1023.8
2018-11-03T04:11:10.961Z,1023.78
2018-11-03T04:12:10.980Z,1023.75
2018-11-03T04:13:10.992Z,1023.7
2018-11-03T04:14:11.008Z,1023.72
2018-11-03T04:15:11.031Z,1023.77
2018-11-03T04:16:11.046Z,1023.72
2018-11-03T04:17:11.067Z,1023.73
2018-11-03T04:18:11.080Z,1023.77
2018-11-03T04:19:11.102Z,1023.7
2018-11-03T04:20:11.117Z,1023.7
2018-11-03T04:21:11.141Z,1023.69
2018-11-03T04:22:11.153Z,1023.7
2018-11-03T04:23:11.171Z,1023.7
2018-11-03T04:24:11.192Z,1023.71
2018-11-03T04:25:11.232Z,1023.69
2018-11-03T04:26:11.220Z,1023.73
2018-11-03T04:27:11.241Z,1023.75
2018-11-03T04:28:11.254Z,1023.78
2018-11-03T04:29:11.276Z,1023.77
2018-11-03T04:30:11.290Z,1023.79
2018-11-03T04:31:11.306Z,1023.84
2018-11-03T04:32:11.325Z,1023.84
2018-11-03T04:33:11.346Z,1023.87
2018-11-03T04:34:11.360Z,1023.88
2018-11-03T04:35:11.381Z,1023.85
2018-11-03T04:37:11.416Z,1023.9
2018-11-03T04:38:11.434Z,1023.85
2018-11-03T04:39:11.447Z,1023.81
2018-11-03T04:40:11.464Z,1023.81
2018-11-03T04:41:11.520Z,1023.82
2018-11-03T04:42:11.504Z,1023.78
2018-11-03T04:43:11.517Z,1023.81
2018-11-03T04:44:11.539Z,1023.83
2018-11-03T04:45:11.561Z,1023.8
2018-11-03T04:46:11.573Z,1023.8
2018-11-03T04:47:11.587Z,1023.78
2018-11-03T04:48:11.604Z,1023.76
2018-11-03T04:49:11.625Z,1023.78
2018-11-03T04:50:11.638Z,1023.82
2018-11-03T04:51:11.660Z,1023.88
2018-11-03T04:53:11.696Z,1023.89
2018-11-03T04:54:11.713Z,1023.92
2018-11-03T04:55:11.805Z,1023.92
2018-11-03T04:56:11.743Z,1023.96
2018-11-03T04:57:11.764Z,1024
2018-11-03T04:58:11.783Z,1024.03
2018-11-03T04:59:11.796Z,1024.01
2018-11-03T05:00:11.818Z,1024.02
2018-11-03T05:01:11.829Z,1024.07
2018-11-03T05:02:11.852Z,1024.06
2018-11-03T05:03:11.890Z,1024.07
2018-11-03T05:04:11.883Z,1024.06
2018-11-03T05:05:11.900Z,1024.08
2018-11-03T05:06:11.921Z,1024.07
2018-11-03T05:07:11.943Z,1024.12
2018-11-03T05:09:11.974Z,1024.18
2018-11-03T05:10:12.032Z,1024.18
2018-11-03T05:11:12.010Z,1024.19
2018-11-03T05:12:12.022Z,1024.21
2018-11-03T05:13:12.072Z,1024.2
2018-11-03T05:14:12.057Z,1024.24
2018-11-03T05:15:12.083Z,1024.22
2018-11-03T05:16:12.090Z,1024.24
2018-11-03T05:17:12.112Z,1024.21
2018-11-03T05:18:12.127Z,1024.25
2018-11-03T05:19:12.142Z,1024.24
2018-11-03T05:20:12.165Z,1024.27
2018-11-03T05:21:12.206Z,1024.29
2018-11-03T05:22:12.200Z,1024.3
2018-11-03T05:23:12.213Z,1024.3
2018-11-03T05:25:12.250Z,1024.34
2018-11-03T05:26:12.265Z,1024.33
2018-11-03T05:27:12.286Z,1024.35
2018-11-03T05:28:12.304Z,1024.31
2018-11-03T05:29:12.317Z,1024.33
2018-11-03T05:30:12.339Z,1024.34
2018-11-03T05:31:12.453Z,1024.29
2018-11-03T05:32:12.373Z,1024.28
2018-11-03T05:33:12.391Z,1024.21
2018-11-03T05:34:12.403Z,1024.18
2018-11-03T05:35:12.426Z,1024.3
2018-11-03T05:36:12.439Z,1024.31
2018-11-03T05:37:12.460Z,1024.33
2018-11-03T05:38:12.474Z,1024.36
2018-11-03T05:40:12.514Z,1024.31
2018-11-03T05:41:12.526Z,1024.29
2018-11-03T05:42:12.547Z,1024.31
2018-11-03T05:43:12.561Z,1024.28
2018-11-03T05:44:12.589Z,1024.27
2018-11-03T05:45:12.600Z,1024.29
2018-11-03T05:46:12.615Z,1024.27
2018-11-03T05:47:12.636Z,1024.31
2018-11-03T05:48:12.647Z,1024.33
2018-11-03T05:49:12.672Z,1024.36
2018-11-03T05:50:12.683Z,1024.36
2018-11-03T05:51:12.704Z,1024.36
2018-11-03T05:52:12.719Z,1024.36
2018-11-03T05:53:12.739Z,1024.34
2018-11-03T05:54:12.762Z,1024.36
2018-11-03T05:55:12.801Z,1024.36
2018-11-03T05:56:12.787Z,1024.32
2018-11-03T05:57:12.809Z,1024.34
2018-11-03T05:58:12.821Z,1024.33
2018-11-03T05:59:12.843Z,1024.33
2018-11-03T06:00:12.857Z,1024.36
2018-11-03T06:01:12.879Z,1024.34
2018-11-03T06:02:12.897Z,1024.37
2018-11-03T06:03:12.916Z,1024.41
2018-11-03T06:04:12.930Z,1024.39
2018-11-03T06:05:12.944Z,1024.39
2018-11-03T06:06:12.966Z,1024.39
2018-11-03T06:07:12.980Z,1024.42
2018-11-03T06:08:12.997Z,1024.38
2018-11-03T06:09:13.012Z,1024.42
2018-11-03T06:10:13.036Z,1024.37
2018-11-03T06:12:13.069Z,1024.38
2018-11-03T06:13:13.082Z,1024.39
2018-11-03T06:14:13.102Z,1024.37
2018-11-03T06:15:13.122Z,1024.4
2018-11-03T06:16:13.139Z,1024.41
2018-11-03T06:17:13.178Z,1024.44
2018-11-03T06:18:13.202Z,1024.46
2018-11-03T06:19:13.190Z,1024.45
2018-11-03T06:20:13.204Z,1024.48
2018-11-03T06:21:13.225Z,1024.49
2018-11-03T06:22:13.247Z,1024.49
2018-11-03T06:23:13.390Z,1024.5
2018-11-03T06:24:13.274Z,1024.47
2018-11-03T06:25:13.293Z,1024.52
2018-11-03T06:26:13.311Z,1024.5
2018-11-03T06:28:13.405Z,1024.53
2018-11-03T06:29:13.405Z,1024.54
2018-11-03T06:30:13.379Z,1024.59
2018-11-03T06:31:13.399Z,1024.61
2018-11-03T06:32:13.412Z,1024.66
2018-11-03T06:33:13.432Z,1024.64
2018-11-03T06:34:13.473Z,1024.66
2018-11-03T06:35:13.506Z,1024.67
2018-11-03T06:36:13.484Z,1024.67
2018-11-03T06:37:13.503Z,1024.64
2018-11-03T06:38:13.519Z,1024.7
2018-11-03T06:39:13.537Z,1024.71
2018-11-03T06:40:13.554Z,1024.74
2018-11-03T06:41:13.568Z,1024.71
2018-11-03T06:42:13.585Z,1024.71
2018-11-03T06:44:13.626Z,1024.76
2018-11-03T06:45:13.643Z,1024.77
2018-11-03T06:46:13.654Z,1024.78
2018-11-03T06:47:13.689Z,1024.81
2018-11-03T06:48:13.688Z,1024.82
2018-11-03T06:49:13.706Z,1024.82
2018-11-03T06:50:13.728Z,1024.82
2018-11-03T06:51:13.741Z,1024.87
2018-11-03T06:52:13.851Z,1024.84
2018-11-03T06:53:13.780Z,1024.83
2018-11-03T06:54:13.793Z,1024.82
2018-11-03T06:55:13.815Z,1024.87
2018-11-03T06:56:13.833Z,1024.87
2018-11-03T06:57:13.853Z,1024.85
2018-11-03T06:58:13.867Z,1024.91
2018-11-03T07:00:13.905Z,1024.94
2018-11-03T07:01:13.916Z,1024.99
2018-11-03T07:02:13.938Z,1024.95
2018-11-03T07:03:13.956Z,1024.98
2018-11-03T07:04:13.977Z,1025.02
2018-11-03T07:05:14.010Z,1024.98
2018-11-03T07:06:14.002Z,1024.97
2018-11-03T07:07:14.026Z,1024.99
2018-11-03T07:08:14.040Z,1025.01
2018-11-03T07:09:14.060Z,1025.02
2018-11-03T07:10:14.074Z,1025.01
2018-11-03T07:11:14.102Z,1025.02
2018-11-03T07:12:14.229Z,1025.06
2018-11-03T07:13:14.299Z,1025.03
2018-11-03T07:15:14.163Z,1025.08
2018-11-03T07:16:14.184Z,1025.08
2018-11-03T07:17:14.196Z,1025.11
2018-11-03T07:18:14.220Z,1025.09
2018-11-03T07:19:14.233Z,1025.09
2018-11-03T07:20:14.254Z,1025.12
2018-11-03T07:21:14.273Z,1025.15
2018-11-03T07:22:14.290Z,1025.2
2018-11-03T07:23:14.303Z,1025.14
2018-11-03T07:24:14.325Z,1025.18
2018-11-03T07:25:14.362Z,1025.13
2018-11-03T07:26:14.362Z,1025.1
2018-11-03T07:27:14.373Z,1025.11
2018-11-03T07:28:14.397Z,1025.11
2018-11-03T07:29:14.409Z,1025.09
2018-11-03T07:30:14.427Z,1025.06
2018-11-03T07:31:14.443Z,1025.04
2018-11-03T07:32:14.466Z,1025.1
2018-11-03T07:33:14.483Z,1025.11
2018-11-03T07:34:14.496Z,1025.14
2018-11-03T07:35:14.520Z,1025.13
2018-11-03T07:36:14.532Z,1025.13
2018-11-03T07:37:14.555Z,1025.13
2018-11-03T07:38:14.568Z,1025.15
2018-11-03T07:39:14.590Z,1025.15
2018-11-03T07:40:14.608Z,1025.1
2018-11-03T07:41:14.691Z,1025.12
2018-11-03T07:42:14.645Z,1025.11
2018-11-03T07:43:14.657Z,1025.11
2018-11-03T07:44:14.680Z,1025.09
2018-11-03T07:45:14.692Z,1025.11
2018-11-03T07:47:14.727Z,1025.2
2018-11-03T07:48:14.934Z,1025.16
2018-11-03T07:49:15.024Z,1025.18
2018-11-03T07:50:14.788Z,1025.18
2018-11-03T07:51:14.799Z,1025.16
2018-11-03T07:52:14.823Z,1025.16
2018-11-03T07:53:14.836Z,1025.16
2018-11-03T07:54:14.855Z,1025.21
2018-11-03T07:55:14.879Z,1025.17
2018-11-03T07:56:14.895Z,1025.17
2018-11-03T07:57:14.913Z,1025.15
2018-11-03T07:58:14.927Z,1025.11
2018-11-03T07:59:14.950Z,1025.11
2018-11-03T08:00:15.032Z,1025.12
2018-11-03T08:01:14.985Z,1025.12
2018-11-03T08:03:15.018Z,1025.13
2018-11-03T08:04:15.057Z,1025.12
2018-11-03T08:05:15.059Z,1025.13
2018-11-03T08:06:15.072Z,1025.18
2018-11-03T08:07:15.094Z,1025.15
2018-11-03T08:08:15.108Z,1025.1
2018-11-03T08:09:15.197Z,1025.14
2018-11-03T08:10:15.146Z,1025.12
2018-11-03T08:11:15.165Z,1025.14
2018-11-03T08:12:15.185Z,1025.12
2018-11-03T08:13:15.204Z,1025.15
2018-11-03T08:14:15.219Z,1025.17
2018-11-03T08:15:15.240Z,1025.2
2018-11-03T08:16:15.253Z,1025.19
2018-11-03T08:17:15.277Z,1025.16
2018-11-03T08:19:15.317Z,1025.19
2018-11-03T08:20:15.329Z,1025.17
2018-11-03T08:21:15.346Z,1025.16
2018-11-03T08:22:15.370Z,1025.15
2018-11-03T08:23:15.387Z,1025.12
2018-11-03T08:24:15.406Z,1025.11
2018-11-03T08:25:15.420Z,1025.14
2018-11-03T08:26:15.442Z,1025.02
2018-11-03T08:27:15.457Z,1025.05
2018-11-03T08:28:15.475Z,1025.03
2018-11-03T08:29:15.496Z,1025.04
2018-11-03T08:30:15.515Z,1025.11
2018-11-03T08:31:15.534Z,1025.07
2018-11-03T08:32:15.549Z,1025.12
2018-11-03T08:33:15.577Z,1025.15
2018-11-03T08:35:15.605Z,1025.22
2018-11-03T08:36:15.623Z,1025.19
2018-11-03T08:37:15.645Z,1025.18
2018-11-03T08:38:15.664Z,1025.17
2018-11-03T08:39:15.678Z,1025.15
2018-11-03T08:40:15.695Z,1025.15
2018-11-03T08:41:15.719Z,1025.16
2018-11-03T08:42:15.757Z,1025.15
2018-11-03T08:43:15.757Z,1025.14
2018-11-03T08:44:15.772Z,1025.14
2018-11-03T08:45:15.789Z,1025.14
2018-11-03T08:46:15.808Z,1025.15
2018-11-03T08:47:15.832Z,1025.13
2018-11-03T08:48:15.968Z,1025.18
2018-11-03T08:50:15.894Z,1025.13
2018-11-03T08:51:15.904Z,1025.19
2018-11-03T08:52:15.926Z,1025.16
2018-11-03T08:53:15.941Z,1025.18
2018-11-03T08:54:15.964Z,1025.24
2018-11-03T08:55:15.982Z,1025.22
2018-11-03T08:56:15.996Z,1025.24
2018-11-03T08:57:16.021Z,1025.27
2018-11-03T08:58:16.034Z,1025.26
2018-11-03T08:59:16.057Z,1025.29
2018-11-03T09:00:16.114Z,1025.31
2018-11-03T09:01:16.096Z,1025.29
2018-11-03T09:02:16.114Z,1025.32
2018-11-03T09:03:16.128Z,1025.31
2018-11-03T09:04:16.152Z,1025.31
2018-11-03T09:05:16.165Z,1025.29
2018-11-03T09:06:16.189Z,1025.29
2018-11-03T09:07:16.204Z,1025.32
2018-11-03T09:08:16.227Z,1025.28
2018-11-03T09:09:16.243Z,1025.35
2018-11-03T09:10:16.260Z,1025.35
2018-11-03T09:11:16.284Z,1025.35
2018-11-03T09:12:16.304Z,1025.34
2018-11-03T09:13:16.316Z,1025.35
2018-11-03T09:14:16.339Z,1025.3
2018-11-03T09:15:16.483Z,1025.34
2018-11-03T09:16:16.380Z,1025.32
2018-11-03T09:17:16.394Z,1025.33
2018-11-03T09:18:16.421Z,1025.32
2018-11-03T09:19:16.436Z,1025.33
2018-11-03T09:20:16.487Z,1025.32
2018-11-03T09:22:16.489Z,1025.3
2018-11-03T09:23:16.516Z,1025.34
2018-11-03T09:24:16.527Z,1025.36
2018-11-03T09:25:16.550Z,1025.3
2018-11-03T09:26:16.570Z,1025.32
2018-11-03T09:27:16.591Z,1025.34
2018-11-03T09:28:16.605Z,1025.39
2018-11-03T09:29:16.624Z,1025.35
2018-11-03T09:30:16.649Z,1025.37
2018-11-03T09:31:16.661Z,1025.36
2018-11-03T09:32:16.686Z,1025.42
2018-11-03T09:33:16.700Z,1025.41
2018-11-03T09:34:16.725Z,1025.43
2018-11-03T09:35:16.739Z,1025.36
2018-11-03T09:36:16.758Z,1025.4
2018-11-03T09:38:16.796Z,1025.37
2018-11-03T09:39:16.974Z,1025.45
2018-11-03T09:40:16.840Z,1025.43
2018-11-03T09:41:16.856Z,1025.49
2018-11-03T09:42:16.877Z,1025.46
2018-11-03T09:43:16.908Z,1025.46
2018-11-03T09:44:16.920Z,1025.45
2018-11-03T09:45:16.932Z,1025.45
2018-11-03T09:46:16.950Z,1025.45
2018-11-03T09:47:16.976Z,1025.45
2018-11-03T09:48:16.994Z,1025.47
2018-11-03T09:49:17.016Z,1025.47
2018-11-03T09:50:17.028Z,1025.46
2018-11-03T09:51:17.183Z,1025.45
2018-11-03T09:52:17.067Z,1025.46
2018-11-03T09:54:17.105Z,1025.49
2018-11-03T09:55:17.143Z,1025.5
2018-11-03T09:56:17.218Z,1025.55
2018-11-03T09:57:17.163Z,1025.5
2018-11-03T09:58:17.187Z,1025.46
2018-11-03T09:59:17.202Z,1025.52
2018-11-03T10:00:17.222Z,1025.52
2018-11-03T10:01:17.241Z,1025.54
2018-11-03T10:02:17.264Z,1025.54
2018-11-03T10:03:17.279Z,1025.48
2018-11-03T10:04:17.306Z,1025.49
2018-11-03T10:05:17.319Z,1025.48
2018-11-03T10:06:17.363Z,1025.46
2018-11-03T10:07:17.359Z,1025.43
2018-11-03T10:08:17.381Z,1025.43
2018-11-03T10:10:17.420Z,1025.4
2018-11-03T10:11:17.496Z,1025.38
2018-11-03T10:12:17.460Z,1025.39
2018-11-03T10:13:17.484Z,1025.34
2018-11-03T10:14:17.495Z,1025.33
2018-11-03T10:15:17.522Z,1025.33
2018-11-03T10:16:17.533Z,1025.32
2018-11-03T10:17:17.558Z,1025.29
2018-11-03T10:18:17.574Z,1025.29
2018-11-03T10:19:17.597Z,1025.31
2018-11-03T10:20:17.617Z,1025.29
2018-11-03T10:21:17.636Z,1025.29
2018-11-03T10:22:17.700Z,1025.31
2018-11-03T10:23:17.674Z,1025.33
2018-11-03T10:25:17.714Z,1025.34
2018-11-03T10:26:17.735Z,1025.32
2018-11-03T10:27:17.754Z,1025.36
2018-11-03T10:28:17.774Z,1025.31
2018-11-03T10:29:17.791Z,1025.3
2018-11-03T10:30:17.821Z,1025.29
2018-11-03T10:31:17.830Z,1025.27
2018-11-03T10:32:17.867Z,1025.32
2018-11-03T10:33:17.868Z,1025.34
2018-11-03T10:34:17.892Z,1025.31
2018-11-03T10:35:17.908Z,1025.3
2018-11-03T10:36:17.933Z,1025.31
2018-11-03T10:37:17.946Z,1025.33
2018-11-03T10:38:17.971Z,1025.33
2018-11-03T10:39:17.987Z,1025.27
2018-11-03T10:40:18.007Z,1025.3
2018-11-03T10:41:18.030Z,1025.3
2018-11-03T10:42:18.140Z,1025.28
2018-11-03T10:43:18.070Z,1025.29
2018-11-03T10:44:18.085Z,1025.27
2018-11-03T10:45:18.109Z,1025.27
2018-11-03T10:46:18.185Z,1025.29
2018-11-03T10:47:18.146Z,1025.29
2018-11-03T10:48:18.165Z,1025.3
2018-11-03T10:49:18.188Z,1025.27
2018-11-03T10:50:18.213Z,1025.24
2018-11-03T10:51:18.229Z,1025.25
2018-11-03T10:52:18.249Z,1025.27
2018-11-03T10:53:18.262Z,1025.3
2018-11-03T10:54:18.308Z,1025.3
2018-11-03T10:55:18.306Z,1025.31
2018-11-03T10:57:18.348Z,1025.26
2018-11-03T10:58:18.369Z,1025.24
2018-11-03T10:59:18.431Z,1025.25
2018-11-03T11:00:18.406Z,1025.25
2018-11-03T11:01:18.458Z,1025.24
2018-11-03T11:02:18.441Z,1025.23
2018-11-03T11:03:18.521Z,1025.25
2018-11-03T11:04:18.481Z,1025.26
2018-11-03T11:05:18.502Z,1025.23
2018-11-03T11:06:18.520Z,1025.23
2018-11-03T11:07:18.545Z,1025.23
2018-11-03T11:08:18.565Z,1025.29
2018-11-03T11:09:18.582Z,1025.25
2018-11-03T11:10:18.606Z,1025.23
2018-11-03T11:11:18.621Z,1025.23
2018-11-03T11:13:18.662Z,1025.22
2018-11-03T11:14:18.898Z,1025.22
2018-11-03T11:15:18.707Z,1025.17
2018-11-03T11:16:18.778Z,1025.16
2018-11-03T11:17:18.747Z,1025.17
2018-11-03T11:18:18.763Z,1025.13
2018-11-03T11:19:18.787Z,1025.1
2018-11-03T11:20:18.807Z,1025.17
2018-11-03T11:21:18.827Z,1025.1
2018-11-03T11:22:18.853Z,1025.08
2018-11-03T11:23:19.006Z,1025.1
2018-11-03T11:24:19.044Z,1025.08
2018-11-03T11:25:18.980Z,1025.02
2018-11-03T11:26:18.924Z,1025.03
2018-11-03T11:27:18.949Z,1024.99
2018-11-03T11:29:18.985Z,1024.99
2018-11-03T11:30:19.010Z,1024.97
2018-11-03T11:31:19.164Z,1024.96
2018-11-03T11:32:19.050Z,1024.97
2018-11-03T11:33:19.066Z,1024.94
2018-11-03T11:34:19.092Z,1024.91
2018-11-03T11:35:19.108Z,1024.93
2018-11-03T11:36:19.133Z,1024.94
2018-11-03T11:37:19.186Z,1024.92
2018-11-03T11:38:19.216Z,1024.88
2018-11-03T11:39:19.192Z,1024.89
2018-11-03T11:40:19.207Z,1024.88
2018-11-03T11:41:19.233Z,1024.85
2018-11-03T11:42:19.253Z,1024.85
2018-11-03T11:43:19.277Z,1024.86
2018-11-03T11:45:19.312Z,1024.88
2018-11-03T11:46:19.335Z,1024.86
2018-11-03T11:47:19.351Z,1024.88
2018-11-03T11:48:19.407Z,1024.84
2018-11-03T11:49:19.391Z,1024.83
2018-11-03T11:50:19.414Z,1024.8
2018-11-03T11:51:19.430Z,1024.8
2018-11-03T11:52:19.452Z,1024.79
2018-11-03T11:53:19.477Z,1024.82
2018-11-03T11:54:19.493Z,1024.83
2018-11-03T11:55:19.512Z,1024.82
2018-11-03T11:56:19.538Z,1024.83
2018-11-03T11:57:19.571Z,1024.83
2018-11-03T11:58:19.579Z,1024.84
2018-11-03T12:00:19.625Z,1024.78
2018-11-03T12:01:19.635Z,1024.73
2018-11-03T12:02:19.704Z,1024.78
2018-11-03T12:03:19.681Z,1024.8
2018-11-03T12:04:19.703Z,1024.79
2018-11-03T12:05:19.722Z,1024.79
2018-11-03T12:06:19.747Z,1024.86
2018-11-03T12:07:19.762Z,1024.8
2018-11-03T12:08:19.783Z,1024.85
2018-11-03T12:09:19.803Z,1024.81
2018-11-03T12:10:19.948Z,1024.81
2018-11-03T12:11:19.844Z,1024.85
2018-11-03T12:12:19.864Z,1024.88
2018-11-03T12:13:19.881Z,1024.86
2018-11-03T12:14:19.905Z,1024.84
2018-11-03T12:15:19.923Z,1024.86
2018-11-03T12:16:20.101Z,1024.82
2018-11-03T12:17:19.963Z,1024.79
2018-11-03T12:18:19.989Z,1024.76
2018-11-03T12:19:20.004Z,1024.74
2018-11-03T12:20:20.028Z,1024.71
2018-11-03T12:21:20.049Z,1024.77
2018-11-03T12:22:20.071Z,1024.74
2018-11-03T12:23:20.086Z,1024.74
2018-11-03T12:24:20.111Z,1024.78
2018-11-03T12:25:20.146Z,1024.8
2018-11-03T12:26:20.148Z,1024.77
2018-11-03T12:27:20.174Z,1024.79
2018-11-03T12:28:20.187Z,1024.75
2018-11-03T12:29:20.216Z,1024.75
2018-11-03T12:30:20.229Z,1024.76
2018-11-03T12:32:20.291Z,1024.67
2018-11-03T12:33:20.290Z,1024.74
2018-11-03T12:34:20.327Z,1024.7
2018-11-03T12:35:20.336Z,1024.77
2018-11-03T12:36:20.358Z,1024.77
2018-11-03T12:37:20.373Z,1024.77
2018-11-03T12:38:20.397Z,1024.77
2018-11-03T12:39:20.419Z,1024.71
2018-11-03T12:40:20.435Z,1024.72
2018-11-03T12:41:20.547Z,1024.7
2018-11-03T12:42:20.475Z,1024.68
2018-11-03T12:43:20.501Z,1024.67
2018-11-03T12:44:20.517Z,1024.64
2018-11-03T12:45:20.542Z,1024.57
2018-11-03T12:46:20.563Z,1024.59
2018-11-03T12:48:20.704Z,1024.54
2018-11-03T12:49:20.623Z,1024.47